Aérodrome :
LOGIN :

S'inscrire | Disclaimer

   EN    FR    IT 

 










Légende :    VFR   VFR Marginal   IFR   IFR Intensif   IFR Très Intensif
Visi : 
Plafond : 
>= 8 km
>= 3000ft
5 à 8 km
1000 à 3000 ft
1500m à 5 km
500 à 1000 ft
800 à 1500m
200 à 500 ft
< 800m
< 200 ft
Symboles :   Orages  Brouillard  Fortes neiges  Fortes précipitations  Vent > 20 kt
SIGMETs :   Divers  Orages  Givrage  Turbulence  Onde Orograph.  Cendres Volcan.







- Altitude de l'aérodrome : 1234 ft
- Code IATA : LUX


ELLX - Luxembourg Findel

DERNIER METAR :
  • 211650Z 27010KT 220V300 9999 FEW046TCU 24/13 Q1013 NOSIG

METARs EXPIRÉS :
  • 211620Z 25011KT 220V280 9999 FEW045TCU 24/13 Q1013 NOSIG
  • 211550Z 25011KT 9999 SCT041 24/13 Q1013 NOSIG
  • 211520Z 26012KT 9999 FEW042 24/13 Q1013 NOSIG
  • 211450Z 24008KT 200V280 9999 FEW045 24/13 Q1013 NOSIG
  • 211420Z 25008KT 190V280 9999 FEW043 25/13 Q1013 NOSIG

TAF TAF ELLX
Valide du 21 à 12h jusqu'au 22 à 18h UTC


211100Z 2112/2218 31007KT 9999 SCT035
PROB40
TEMPO 2112/2118 5000 TSRA SCT030CB BKN035
BECMG 2119/2121 CAVOK
TEMPO 2202/2207 5000 BR NSC
BECMG 2207/2209 9999 SCT040
TEMPO 2212/2218 CAVOK
ATIS : +352 4798 27300
Météo : +352 4798 27010 / 27050
Pas de NOTAMs connus pour ce terrain.



MET'MAP, la Météo Aéronautique d'un coup d'oeil ! - Copyright ORBIFLY Décembre 2007 - Disclaimer

ORBIFLY MET'MAP TEAM :

Programmation & Développement : Alexandra Zaïnal
Conception & Développement : Baudouin d'Aumeries
Co-Programmation & Développement : Marc-Olivier Méhu
Soutien technique & logistique : Manuel Goepfert

Contact : metmap@orbifly.com




SOURCES & CREDITS :

   NOAA